sensor_id;sensor_type;location;lat;lon;timestamp;temperature;humidity
34829;DHT22;21042;47.620;12.188;2022-10-31T00:00:56;11.10;99.90
34829;DHT22;21042;47.620;12.188;2022-10-31T00:03:23;11.10;99.90
34829;DHT22;21042;47.620;12.188;2022-10-31T00:05:50;11.00;99.90
34829;DHT22;21042;47.620;12.188;2022-10-31T00:08:17;11.00;99.90
34829;DHT22;21042;47.620;12.188;2022-10-31T00:10:45;11.00;99.90
34829;DHT22;21042;47.620;12.188;2022-10-31T00:13:13;11.00;99.90
34829;DHT22;21042;47.620;12.188;2022-10-31T00:15:41;11.00;99.90
34829;DHT22;21042;47.620;12.188;2022-10-31T00:18:09;11.00;99.90
34829;DHT22;21042;47.620;12.188;2022-10-31T00:20:36;11.00;99.90
34829;DHT22;21042;47.620;12.188;2022-10-31T00:23:04;10.90;99.90
34829;DHT22;21042;47.620;12.188;2022-10-31T00:25:36;10.90;99.90
34829;DHT22;21042;47.620;12.188;2022-10-31T00:28:05;10.90;99.90
34829;DHT22;21042;47.620;12.188;2022-10-31T00:30:33;10.90;99.90
34829;DHT22;21042;47.620;12.188;2022-10-31T00:33:02;10.90;99.90
34829;DHT22;21042;47.620;12.188;2022-10-31T00:35:31;10.80;99.90
34829;DHT22;21042;47.620;12.188;2022-10-31T00:37:58;10.70;99.90
34829;DHT22;21042;47.620;12.188;2022-10-31T00:40:24;10.60;99.90
34829;DHT22;21042;47.620;12.188;2022-10-31T00:42:52;10.50;99.90
34829;DHT22;21042;47.620;12.188;2022-10-31T00:45:19;10.40;99.90
34829;DHT22;21042;47.620;12.188;2022-10-31T00:47:46;10.30;99.90
34829;DHT22;21042;47.620;12.188;2022-10-31T00:50:13;10.30;99.90
34829;DHT22;21042;47.620;12.188;2022-10-31T00:52:40;10.30;99.90
34829;DHT22;21042;47.620;12.188;2022-10-31T00:55:07;10.20;99.90
34829;DHT22;21042;47.620;12.188;2022-10-31T00:57:34;10.10;99.90
34829;DHT22;21042;47.620;12.188;2022-10-31T01:00:03;10.10;99.90
34829;DHT22;21042;47.620;12.188;2022-10-31T01:02:29;10.00;99.90
34829;DHT22;21042;47.620;12.188;2022-10-31T01:04:56;10.00;99.90
34829;DHT22;21042;47.620;12.188;2022-10-31T01:07:23;10.00;99.90
34829;DHT22;21042;47.620;12.188;2022-10-31T01:09:50;9.90;99.90
34829;DHT22;21042;47.620;12.188;2022-10-31T01:12:18;9.70;99.90
34829;DHT22;21042;47.620;12.188;2022-10-31T01:14:45;9.60;99.90
34829;DHT22;21042;47.620;12.188;2022-10-31T01:17:13;9.60;99.90
34829;DHT22;21042;47.620;12.188;2022-10-31T01:19:39;9.60;99.90
34829;DHT22;21042;47.620;12.188;2022-10-31T01:22:06;9.50;99.90
34829;DHT22;21042;47.620;12.188;2022-10-31T01:24:33;9.50;99.90
34829;DHT22;21042;47.620;12.188;2022-10-31T01:27:01;9.50;99.90
34829;DHT22;21042;47.620;12.188;2022-10-31T01:29:32;9.50;99.90
34829;DHT22;21042;47.620;12.188;2022-10-31T01:31:59;9.50;99.90
34829;DHT22;21042;47.620;12.188;2022-10-31T01:34:25;9.60;99.90
34829;DHT22;21042;47.620;12.188;2022-10-31T01:36:52;9.50;99.90
34829;DHT22;21042;47.620;12.188;2022-10-31T01:39:20;9.60;99.90
34829;DHT22;21042;47.620;12.188;2022-10-31T01:41:50;9.70;99.90
34829;DHT22;21042;47.620;12.188;2022-10-31T01:51:56;9.60;99.90
34829;DHT22;21042;47.620;12.188;2022-10-31T01:54:30;9.50;99.90
34829;DHT22;21042;47.620;12.188;2022-10-31T01:56:58;9.50;99.90
34829;DHT22;21042;47.620;12.188;2022-10-31T01:59:29;9.40;99.90
34829;DHT22;21042;47.620;12.188;2022-10-31T02:01:56;9.40;99.90
34829;DHT22;21042;47.620;12.188;2022-10-31T02:04:25;9.40;99.90
34829;DHT22;21042;47.620;12.188;2022-10-31T02:06:59;9.30;99.90
34829;DHT22;21042;47.620;12.188;2022-10-31T02:09:30;9.30;99.90
34829;DHT22;21042;47.620;12.188;2022-10-31T02:11:58;9.30;99.90
34829;DHT22;21042;47.620;12.188;2022-10-31T02:14:29;9.30;99.90
34829;DHT22;21042;47.620;12.188;2022-10-31T02:16:57;9.20;99.90
34829;DHT22;21042;47.620;12.188;2022-10-31T02:30:14;8.90;99.90
34829;DHT22;21042;47.620;12.188;2022-10-31T02:36:01;8.80;99.90
34829;DHT22;21042;47.620;12.188;2022-10-31T02:38:55;8.80;99.90
34829;DHT22;21042;47.620;12.188;2022-10-31T02:41:52;8.80;99.90
34829;DHT22;21042;47.620;12.188;2022-10-31T02:47:05;8.90;99.90
34829;DHT22;21042;47.620;12.188;2022-10-31T02:49:45;8.90;99.90
34829;DHT22;21042;47.620;12.188;2022-10-31T02:52:24;8.90;99.90
34829;DHT22;21042;47.620;12.188;2022-10-31T02:54:51;8.90;99.90
34829;DHT22;21042;47.620;12.188;2022-10-31T02:57:37;8.90;99.90
34829;DHT22;21042;47.620;12.188;2022-10-31T03:00:08;8.90;99.90
34829;DHT22;21042;47.620;12.188;2022-10-31T03:02:56;8.90;99.90
34829;DHT22;21042;47.620;12.188;2022-10-31T03:08:30;8.80;99.90
34829;DHT22;21042;47.620;12.188;2022-10-31T03:11:04;8.80;99.90
34829;DHT22;21042;47.620;12.188;2022-10-31T03:13:51;8.60;99.90
34829;DHT22;21042;47.620;12.188;2022-10-31T03:16:45;8.60;99.90
34829;DHT22;21042;47.620;12.188;2022-10-31T03:19:38;8.60;99.90
34829;DHT22;21042;47.620;12.188;2022-10-31T03:22:22;8.50;99.90
34829;DHT22;21042;47.620;12.188;2022-10-31T03:24:52;8.50;99.90
34829;DHT22;21042;47.620;12.188;2022-10-31T03:27:33;8.40;99.90
34829;DHT22;21042;47.620;12.188;2022-10-31T03:30:04;8.40;99.90
34829;DHT22;21042;47.620;12.188;2022-10-31T03:32:48;8.30;99.90
34829;DHT22;21042;47.620;12.188;2022-10-31T03:35:18;8.30;99.90
34829;DHT22;21042;47.620;12.188;2022-10-31T03:37:47;8.40;99.90
34829;DHT22;21042;47.620;12.188;2022-10-31T03:40:16;8.40;99.90
34829;DHT22;21042;47.620;12.188;2022-10-31T03:42:54;8.40;99.90
34829;DHT22;21042;47.620;12.188;2022-10-31T03:45:30;8.30;99.90
34829;DHT22;21042;47.620;12.188;2022-10-31T03:47:58;8.40;99.90
34829;DHT22;21042;47.620;12.188;2022-10-31T03:50:31;8.40;99.90
34829;DHT22;21042;47.620;12.188;2022-10-31T03:53:05;8.40;99.90
34829;DHT22;21042;47.620;12.188;2022-10-31T03:55:46;8.40;99.90
34829;DHT22;21042;47.620;12.188;2022-10-31T03:58:22;8.40;99.90
34829;DHT22;21042;47.620;12.188;2022-10-31T04:00:54;8.40;99.90
34829;DHT22;21042;47.620;12.188;2022-10-31T04:03:27;8.40;99.90
34829;DHT22;21042;47.620;12.188;2022-10-31T04:06:06;8.40;99.90
34829;DHT22;21042;47.620;12.188;2022-10-31T04:08:40;8.40;99.90
34829;DHT22;21042;47.620;12.188;2022-10-31T04:11:13;8.50;99.90
34829;DHT22;21042;47.620;12.188;2022-10-31T04:13:46;8.40;99.90
34829;DHT22;21042;47.620;12.188;2022-10-31T04:16:20;8.40;99.90
34829;DHT22;21042;47.620;12.188;2022-10-31T04:18:48;8.40;99.90
34829;DHT22;21042;47.620;12.188;2022-10-31T04:21:15;8.40;99.90
34829;DHT22;21042;47.620;12.188;2022-10-31T04:23:43;8.40;99.90
34829;DHT22;21042;47.620;12.188;2022-10-31T04:26:17;8.30;99.90
34829;DHT22;21042;47.620;12.188;2022-10-31T04:28:45;8.20;99.90
34829;DHT22;21042;47.620;12.188;2022-10-31T04:31:13;8.10;99.90
34829;DHT22;21042;47.620;12.188;2022-10-31T04:33:42;8.10;99.90
34829;DHT22;21042;47.620;12.188;2022-10-31T04:36:09;8.10;99.90
34829;DHT22;21042;47.620;12.188;2022-10-31T04:38:36;8.10;99.90
34829;DHT22;21042;47.620;12.188;2022-10-31T04:41:10;8.20;99.90
34829;DHT22;21042;47.620;12.188;2022-10-31T04:43:57;8.20;99.90
34829;DHT22;21042;47.620;12.188;2022-10-31T04:46:26;8.20;99.90
34829;DHT22;21042;47.620;12.188;2022-10-31T04:48:54;8.20;99.90
34829;DHT22;21042;47.620;12.188;2022-10-31T04:51:21;8.20;99.90
34829;DHT22;21042;47.620;12.188;2022-10-31T04:53:48;8.10;99.90
34829;DHT22;21042;47.620;12.188;2022-10-31T04:56:26;8.10;99.90
34829;DHT22;21042;47.620;12.188;2022-10-31T04:59:04;8.10;99.90
34829;DHT22;21042;47.620;12.188;2022-10-31T05:01:43;8.10;99.90
34829;DHT22;21042;47.620;12.188;2022-10-31T05:04:10;8.10;99.90
34829;DHT22;21042;47.620;12.188;2022-10-31T05:06:37;8.10;99.90
34829;DHT22;21042;47.620;12.188;2022-10-31T05:09:04;8.00;99.90
34829;DHT22;21042;47.620;12.188;2022-10-31T05:11:31;8.00;99.90
34829;DHT22;21042;47.620;12.188;2022-10-31T05:14:08;7.90;99.90
34829;DHT22;21042;47.620;12.188;2022-10-31T05:16:58;7.90;99.90
34829;DHT22;21042;47.620;12.188;2022-10-31T05:19:45;7.80;99.90
34829;DHT22;21042;47.620;12.188;2022-10-31T05:22:30;7.90;99.90
34829;DHT22;21042;47.620;12.188;2022-10-31T05:24:57;7.90;99.90
34829;DHT22;21042;47.620;12.188;2022-10-31T05:27:23;7.80;99.90
34829;DHT22;21042;47.620;12.188;2022-10-31T05:29:50;7.80;99.90
34829;DHT22;21042;47.620;12.188;2022-10-31T05:32:17;7.80;99.90
34829;DHT22;21042;47.620;12.188;2022-10-31T05:35:19;7.80;99.90
34829;DHT22;21042;47.620;12.188;2022-10-31T05:38:11;7.80;99.90
34829;DHT22;21042;47.620;12.188;2022-10-31T05:40:38;7.80;99.90
34829;DHT22;21042;47.620;12.188;2022-10-31T05:43:04;7.90;99.90
34829;DHT22;21042;47.620;12.188;2022-10-31T05:45:31;7.90;99.90
34829;DHT22;21042;47.620;12.188;2022-10-31T05:48:02;7.80;99.90
34829;DHT22;21042;47.620;12.188;2022-10-31T05:51:00;7.70;99.90
34829;DHT22;21042;47.620;12.188;2022-10-31T05:53:26;7.50;99.90
34829;DHT22;21042;47.620;12.188;2022-10-31T05:55:54;7.50;99.90
34829;DHT22;21042;47.620;12.188;2022-10-31T05:58:21;7.50;99.90
34829;DHT22;21042;47.620;12.188;2022-10-31T06:00:57;7.40;99.90
34829;DHT22;21042;47.620;12.188;2022-10-31T06:03:24;7.40;99.90
34829;DHT22;21042;47.620;12.188;2022-10-31T06:05:57;7.40;99.90
34829;DHT22;21042;47.620;12.188;2022-10-31T06:08:29;7.50;99.90
34829;DHT22;21042;47.620;12.188;2022-10-31T06:11:00;7.50;99.90
34829;DHT22;21042;47.620;12.188;2022-10-31T06:13:49;7.60;99.90
34829;DHT22;21042;47.620;12.188;2022-10-31T06:16:22;7.70;99.90
34829;DHT22;21042;47.620;12.188;2022-10-31T06:18:50;7.80;99.90
34829;DHT22;21042;47.620;12.188;2022-10-31T06:21:17;7.90;99.90
34829;DHT22;21042;47.620;12.188;2022-10-31T06:23:47;8.00;99.90
34829;DHT22;21042;47.620;12.188;2022-10-31T06:26:37;8.10;99.90
34829;DHT22;21042;47.620;12.188;2022-10-31T06:29:04;8.10;99.90
34829;DHT22;21042;47.620;12.188;2022-10-31T06:31:55;8.20;99.90
34829;DHT22;21042;47.620;12.188;2022-10-31T06:34:22;8.20;99.90
34829;DHT22;21042;47.620;12.188;2022-10-31T06:36:49;8.30;99.90
34829;DHT22;21042;47.620;12.188;2022-10-31T06:39:19;8.40;99.90
34829;DHT22;21042;47.620;12.188;2022-10-31T06:41:49;8.40;99.90
34829;DHT22;21042;47.620;12.188;2022-10-31T06:44:19;8.30;99.90
34829;DHT22;21042;47.620;12.188;2022-10-31T06:46:58;8.20;99.90
34829;DHT22;21042;47.620;12.188;2022-10-31T06:49:49;8.00;99.90
34829;DHT22;21042;47.620;12.188;2022-10-31T06:52:20;8.00;99.90
34829;DHT22;21042;47.620;12.188;2022-10-31T06:54:46;8.00;99.90
34829;DHT22;21042;47.620;12.188;2022-10-31T06:57:14;8.10;99.90
34829;DHT22;21042;47.620;12.188;2022-10-31T06:59:40;8.20;99.90
34829;DHT22;21042;47.620;12.188;2022-10-31T07:02:26;8.30;99.90
34829;DHT22;21042;47.620;12.188;2022-10-31T07:04:56;8.40;99.90
34829;DHT22;21042;47.620;12.188;2022-10-31T07:07:23;8.40;99.90
34829;DHT22;21042;47.620;12.188;2022-10-31T07:09:50;8.50;99.90
34829;DHT22;21042;47.620;12.188;2022-10-31T07:12:21;8.50;99.90
34829;DHT22;21042;47.620;12.188;2022-10-31T07:14:55;8.60;99.90
34829;DHT22;21042;47.620;12.188;2022-10-31T07:17:23;8.60;99.90
34829;DHT22;21042;47.620;12.188;2022-10-31T07:19:57;8.60;99.90
34829;DHT22;21042;47.620;12.188;2022-10-31T07:22:24;8.70;99.90
34829;DHT22;21042;47.620;12.188;2022-10-31T07:24:50;8.70;99.90
34829;DHT22;21042;47.620;12.188;2022-10-31T07:27:41;8.70;99.90
34829;DHT22;21042;47.620;12.188;2022-10-31T07:30:11;8.80;99.90
34829;DHT22;21042;47.620;12.188;2022-10-31T07:32:47;9.00;99.90
34829;DHT22;21042;47.620;12.188;2022-10-31T07:35:18;9.20;99.90
34829;DHT22;21042;47.620;12.188;2022-10-31T07:37:47;9.40;99.90
34829;DHT22;21042;47.620;12.188;2022-10-31T07:40:15;9.60;99.90
34829;DHT22;21042;47.620;12.188;2022-10-31T07:42:46;9.90;99.90
34829;DHT22;21042;47.620;12.188;2022-10-31T07:45:33;10.10;99.90
34829;DHT22;21042;47.620;12.188;2022-10-31T07:48:32;10.20;99.90
34829;DHT22;21042;47.620;12.188;2022-10-31T07:51:19;10.20;99.90
34829;DHT22;21042;47.620;12.188;2022-10-31T07:54:15;10.20;99.90
34829;DHT22;21042;47.620;12.188;2022-10-31T07:56:42;10.30;99.90
34829;DHT22;21042;47.620;12.188;2022-10-31T07:59:09;10.30;99.90
34829;DHT22;21042;47.620;12.188;2022-10-31T08:01:35;10.40;99.90
34829;DHT22;21042;47.620;12.188;2022-10-31T08:04:22;10.50;99.90
34829;DHT22;21042;47.620;12.188;2022-10-31T08:07:07;10.60;99.90
34829;DHT22;21042;47.620;12.188;2022-10-31T08:09:36;10.70;99.90
34829;DHT22;21042;47.620;12.188;2022-10-31T08:12:14;10.80;99.90
34829;DHT22;21042;47.620;12.188;2022-10-31T08:14:41;11.10;99.90
34829;DHT22;21042;47.620;12.188;2022-10-31T08:17:08;11.20;99.90
34829;DHT22;21042;47.620;12.188;2022-10-31T08:19:44;11.30;99.90
34829;DHT22;21042;47.620;12.188;2022-10-31T08:22:13;11.50;99.90
34829;DHT22;21042;47.620;12.188;2022-10-31T08:24:40;11.70;99.90
34829;DHT22;21042;47.620;12.188;2022-10-31T08:27:07;11.70;99.90
34829;DHT22;21042;47.620;12.188;2022-10-31T08:29:33;11.80;99.90
34829;DHT22;21042;47.620;12.188;2022-10-31T08:32:00;11.90;99.90
34829;DHT22;21042;47.620;12.188;2022-10-31T08:34:46;11.90;99.90
34829;DHT22;21042;47.620;12.188;2022-10-31T08:37:31;12.00;99.90
34829;DHT22;21042;47.620;12.188;2022-10-31T08:39:58;12.10;99.90
34829;DHT22;21042;47.620;12.188;2022-10-31T08:42:25;12.20;99.90
34829;DHT22;21042;47.620;12.188;2022-10-31T08:44:51;12.40;99.90
34829;DHT22;21042;47.620;12.188;2022-10-31T08:47:20;12.60;99.90
34829;DHT22;21042;47.620;12.188;2022-10-31T08:49:47;12.80;99.90
34829;DHT22;21042;47.620;12.188;2022-10-31T08:52:14;13.00;99.90
34829;DHT22;21042;47.620;12.188;2022-10-31T08:54:45;13.00;99.90
34829;DHT22;21042;47.620;12.188;2022-10-31T08:57:47;13.10;99.90
34829;DHT22;21042;47.620;12.188;2022-10-31T09:00:14;13.30;99.90
34829;DHT22;21042;47.620;12.188;2022-10-31T09:03:00;13.30;99.90
34829;DHT22;21042;47.620;12.188;2022-10-31T09:05:30;13.30;99.90
34829;DHT22;21042;47.620;12.188;2022-10-31T09:07:58;13.30;99.90
34829;DHT22;21042;47.620;12.188;2022-10-31T09:10:27;13.40;99.90
34829;DHT22;21042;47.620;12.188;2022-10-31T09:12:59;13.50;99.90
34829;DHT22;21042;47.620;12.188;2022-10-31T09:15:27;13.70;99.90
34829;DHT22;21042;47.620;12.188;2022-10-31T09:18:20;13.80;99.90
34829;DHT22;21042;47.620;12.188;2022-10-31T09:21:00;13.80;99.90
34829;DHT22;21042;47.620;12.188;2022-10-31T09:23:29;13.90;99.90
34829;DHT22;21042;47.620;12.188;2022-10-31T09:25:59;13.90;99.90
34829;DHT22;21042;47.620;12.188;2022-10-31T09:28:30;14.10;99.90
34829;DHT22;21042;47.620;12.188;2022-10-31T09:31:04;14.20;99.90
34829;DHT22;21042;47.620;12.188;2022-10-31T09:33:54;14.20;99.90
34829;DHT22;21042;47.620;12.188;2022-10-31T09:36:44;14.30;99.90
34829;DHT22;21042;47.620;12.188;2022-10-31T09:39:17;14.50;99.90
34829;DHT22;21042;47.620;12.188;2022-10-31T09:50:44;14.80;99.90
34829;DHT22;21042;47.620;12.188;2022-10-31T09:56:23;15.10;99.90
34829;DHT22;21042;47.620;12.188;2022-10-31T09:58:57;15.30;99.90
34829;DHT22;21042;47.620;12.188;2022-10-31T10:01:34;15.40;99.90
34829;DHT22;21042;47.620;12.188;2022-10-31T10:10:24;15.60;99.90
34829;DHT22;21042;47.620;12.188;2022-10-31T10:19:27;16.00;99.90
34829;DHT22;21042;47.620;12.188;2022-10-31T10:24:54;16.10;99.90
34829;DHT22;21042;47.620;12.188;2022-10-31T10:30:43;16.30;99.90
34829;DHT22;21042;47.620;12.188;2022-10-31T10:33:13;16.30;99.90
34829;DHT22;21042;47.620;12.188;2022-10-31T10:35:52;16.50;99.90
34829;DHT22;21042;47.620;12.188;2022-10-31T10:38:39;16.50;99.90
34829;DHT22;21042;47.620;12.188;2022-10-31T10:41:16;16.60;99.90
34829;DHT22;21042;47.620;12.188;2022-10-31T10:43:42;16.70;99.90
34829;DHT22;21042;47.620;12.188;2022-10-31T11:00:20;16.70;99.90
34829;DHT22;21042;47.620;12.188;2022-10-31T11:02:47;16.70;99.90
34829;DHT22;21042;47.620;12.188;2022-10-31T11:07:46;17.00;99.90
34829;DHT22;21042;47.620;12.188;2022-10-31T11:10:15;17.00;99.90
34829;DHT22;21042;47.620;12.188;2022-10-31T11:13:01;17.10;99.90
34829;DHT22;21042;47.620;12.188;2022-10-31T11:15:32;17.10;99.90
34829;DHT22;21042;47.620;12.188;2022-10-31T11:18:00;17.30;99.90
34829;DHT22;21042;47.620;12.188;2022-10-31T11:20:35;17.30;99.90
34829;DHT22;21042;47.620;12.188;2022-10-31T11:23:17;17.50;99.90
34829;DHT22;21042;47.620;12.188;2022-10-31T11:25:58;17.50;99.90
34829;DHT22;21042;47.620;12.188;2022-10-31T11:28:28;17.60;99.90
34829;DHT22;21042;47.620;12.188;2022-10-31T11:31:00;17.70;99.90
34829;DHT22;21042;47.620;12.188;2022-10-31T11:33:36;17.70;99.90
34829;DHT22;21042;47.620;12.188;2022-10-31T11:39:20;17.70;99.90
34829;DHT22;21042;47.620;12.188;2022-10-31T11:41:48;17.80;99.90
34829;DHT22;21042;47.620;12.188;2022-10-31T11:49:28;17.80;99.90
34829;DHT22;21042;47.620;12.188;2022-10-31T11:51:58;17.90;99.90
34829;DHT22;21042;47.620;12.188;2022-10-31T11:54:28;17.90;99.90
34829;DHT22;21042;47.620;12.188;2022-10-31T11:56:55;17.80;99.90
34829;DHT22;21042;47.620;12.188;2022-10-31T12:01:51;17.70;99.90
34829;DHT22;21042;47.620;12.188;2022-10-31T12:04:18;17.80;99.90
34829;DHT22;21042;47.620;12.188;2022-10-31T12:06:50;17.80;99.90
34829;DHT22;21042;47.620;12.188;2022-10-31T12:09:21;17.90;99.90
34829;DHT22;21042;47.620;12.188;2022-10-31T12:25:25;18.00;99.90
34829;DHT22;21042;47.620;12.188;2022-10-31T12:28:00;17.90;99.90
34829;DHT22;21042;47.620;12.188;2022-10-31T12:36:46;17.90;99.90
34829;DHT22;21042;47.620;12.188;2022-10-31T12:39:25;17.90;99.90
34829;DHT22;21042;47.620;12.188;2022-10-31T12:42:33;17.80;99.90
34829;DHT22;21042;47.620;12.188;2022-10-31T12:59:57;17.60;99.90
34829;DHT22;21042;47.620;12.188;2022-10-31T13:02:18;17.60;99.90
34829;DHT22;21042;47.620;12.188;2022-10-31T13:05:03;17.60;99.90
34829;DHT22;21042;47.620;12.188;2022-10-31T13:07:41;17.50;99.90
34829;DHT22;21042;47.620;12.188;2022-10-31T13:10:26;17.50;99.90
34829;DHT22;21042;47.620;12.188;2022-10-31T13:13:00;17.50;99.90
34829;DHT22;21042;47.620;12.188;2022-10-31T13:15:32;17.50;99.90
34829;DHT22;21042;47.620;12.188;2022-10-31T13:18:04;17.50;99.90
34829;DHT22;21042;47.620;12.188;2022-10-31T13:20:40;17.50;99.90
34829;DHT22;21042;47.620;12.188;2022-10-31T13:23:22;17.50;99.90
34829;DHT22;21042;47.620;12.188;2022-10-31T13:26:21;17.60;99.90
34829;DHT22;21042;47.620;12.188;2022-10-31T13:29:00;17.60;99.90
34829;DHT22;21042;47.620;12.188;2022-10-31T13:31:29;17.70;99.90
34829;DHT22;21042;47.620;12.188;2022-10-31T13:34:02;17.90;99.90
34829;DHT22;21042;47.620;12.188;2022-10-31T13:36:35;18.00;99.90
34829;DHT22;21042;47.620;12.188;2022-10-31T13:42:13;18.20;99.90
34829;DHT22;21042;47.620;12.188;2022-10-31T13:44:37;18.30;99.90
34829;DHT22;21042;47.620;12.188;2022-10-31T13:47:35;18.40;99.90
34829;DHT22;21042;47.620;12.188;2022-10-31T13:50:23;18.50;99.90
34829;DHT22;21042;47.620;12.188;2022-10-31T13:52:50;18.50;99.90
34829;DHT22;21042;47.620;12.188;2022-10-31T13:55:37;18.50;99.90
34829;DHT22;21042;47.620;12.188;2022-10-31T13:58:18;18.60;99.90
34829;DHT22;21042;47.620;12.188;2022-10-31T14:00:57;18.60;99.90
34829;DHT22;21042;47.620;12.188;2022-10-31T14:03:25;18.60;99.90
34829;DHT22;21042;47.620;12.188;2022-10-31T14:06:12;18.60;99.90
34829;DHT22;21042;47.620;12.188;2022-10-31T14:08:49;18.60;99.90
34829;DHT22;21042;47.620;12.188;2022-10-31T14:11:23;18.60;99.90
34829;DHT22;21042;47.620;12.188;2022-10-31T14:13:50;18.60;99.90
34829;DHT22;21042;47.620;12.188;2022-10-31T14:16:21;18.50;99.90
34829;DHT22;21042;47.620;12.188;2022-10-31T14:18:57;18.50;99.90
34829;DHT22;21042;47.620;12.188;2022-10-31T14:21:29;18.50;99.90
34829;DHT22;21042;47.620;12.188;2022-10-31T14:23:57;18.50;99.90
34829;DHT22;21042;47.620;12.188;2022-10-31T14:29:26;18.50;99.90
34829;DHT22;21042;47.620;12.188;2022-10-31T14:32:14;18.50;99.90
34829;DHT22;21042;47.620;12.188;2022-10-31T14:37:24;18.50;99.90
34829;DHT22;21042;47.620;12.188;2022-10-31T14:42:53;18.60;99.90
34829;DHT22;21042;47.620;12.188;2022-10-31T14:48:43;18.80;99.90
34829;DHT22;21042;47.620;12.188;2022-10-31T14:51:23;18.70;99.90
34829;DHT22;21042;47.620;12.188;2022-10-31T14:53:53;18.70;99.90
34829;DHT22;21042;47.620;12.188;2022-10-31T14:56:30;18.60;99.90
34829;DHT22;21042;47.620;12.188;2022-10-31T14:59:11;18.50;99.90
34829;DHT22;21042;47.620;12.188;2022-10-31T15:01:39;18.40;99.90
34829;DHT22;21042;47.620;12.188;2022-10-31T15:04:14;18.30;99.90
34829;DHT22;21042;47.620;12.188;2022-10-31T15:07:04;18.20;99.90
34829;DHT22;21042;47.620;12.188;2022-10-31T15:09:33;18.10;99.90
34829;DHT22;21042;47.620;12.188;2022-10-31T15:12:14;17.90;99.90
34829;DHT22;21042;47.620;12.188;2022-10-31T15:14:43;17.70;99.90
34829;DHT22;21042;47.620;12.188;2022-10-31T15:17:11;17.50;99.90
34829;DHT22;21042;47.620;12.188;2022-10-31T15:19:38;17.40;99.90
34829;DHT22;21042;47.620;12.188;2022-10-31T15:22:05;17.30;99.90
34829;DHT22;21042;47.620;12.188;2022-10-31T15:24:34;17.10;99.90
34829;DHT22;21042;47.620;12.188;2022-10-31T15:27:02;17.00;99.90
34829;DHT22;21042;47.620;12.188;2022-10-31T15:29:31;16.80;99.90
34829;DHT22;21042;47.620;12.188;2022-10-31T15:32:00;16.60;99.90
34829;DHT22;21042;47.620;12.188;2022-10-31T15:34:44;16.60;99.90
34829;DHT22;21042;47.620;12.188;2022-10-31T15:37:15;16.30;99.90
34829;DHT22;21042;47.620;12.188;2022-10-31T15:39:44;16.20;99.90
34829;DHT22;21042;47.620;12.188;2022-10-31T15:42:30;16.00;99.90
34829;DHT22;21042;47.620;12.188;2022-10-31T15:45:12;15.90;99.90
34829;DHT22;21042;47.620;12.188;2022-10-31T15:50:38;15.60;99.90
34829;DHT22;21042;47.620;12.188;2022-10-31T15:53:16;15.40;99.90
34829;DHT22;21042;47.620;12.188;2022-10-31T15:55:57;15.30;99.90
34829;DHT22;21042;47.620;12.188;2022-10-31T15:58:26;15.20;99.90
34829;DHT22;21042;47.620;12.188;2022-10-31T16:01:04;15.00;99.90
34829;DHT22;21042;47.620;12.188;2022-10-31T16:03:33;14.90;99.90
34829;DHT22;21042;47.620;12.188;2022-10-31T16:06:03;14.70;99.90
34829;DHT22;21042;47.620;12.188;2022-10-31T16:13:40;14.60;99.90
34829;DHT22;21042;47.620;12.188;2022-10-31T16:16:15;14.50;99.90
34829;DHT22;21042;47.620;12.188;2022-10-31T16:19:04;14.40;99.90
34829;DHT22;21042;47.620;12.188;2022-10-31T16:21:35;14.30;99.90
34829;DHT22;21042;47.620;12.188;2022-10-31T16:24:15;14.20;99.90
34829;DHT22;21042;47.620;12.188;2022-10-31T16:26:48;14.10;99.90
34829;DHT22;21042;47.620;12.188;2022-10-31T16:29:38;14.10;99.90
34829;DHT22;21042;47.620;12.188;2022-10-31T16:37:40;13.90;99.90
34829;DHT22;21042;47.620;12.188;2022-10-31T16:40:09;13.70;99.90
34829;DHT22;21042;47.620;12.188;2022-10-31T16:42:36;13.70;99.90
34829;DHT22;21042;47.620;12.188;2022-10-31T16:45:05;13.70;99.90
34829;DHT22;21042;47.620;12.188;2022-10-31T16:47:32;13.70;99.90
34829;DHT22;21042;47.620;12.188;2022-10-31T16:49:59;13.70;99.90
34829;DHT22;21042;47.620;12.188;2022-10-31T16:52:27;13.60;99.90
34829;DHT22;21042;47.620;12.188;2022-10-31T16:55:00;13.60;99.90
34829;DHT22;21042;47.620;12.188;2022-10-31T16:57:29;13.40;99.90
34829;DHT22;21042;47.620;12.188;2022-10-31T16:59:57;13.40;99.90
34829;DHT22;21042;47.620;12.188;2022-10-31T17:02:24;13.30;99.90
34829;DHT22;21042;47.620;12.188;2022-10-31T17:04:51;13.20;99.90
34829;DHT22;21042;47.620;12.188;2022-10-31T17:07:22;13.10;99.90
34829;DHT22;21042;47.620;12.188;2022-10-31T17:09:49;13.00;99.90
34829;DHT22;21042;47.620;12.188;2022-10-31T17:12:18;12.90;99.90
34829;DHT22;21042;47.620;12.188;2022-10-31T17:14:49;12.90;99.90
34829;DHT22;21042;47.620;12.188;2022-10-31T17:17:16;12.90;99.90
34829;DHT22;21042;47.620;12.188;2022-10-31T17:19:43;12.90;99.90
34829;DHT22;21042;47.620;12.188;2022-10-31T17:22:13;12.80;99.90
34829;DHT22;21042;47.620;12.188;2022-10-31T17:24:40;12.80;99.90
34829;DHT22;21042;47.620;12.188;2022-10-31T17:27:07;12.90;99.90
34829;DHT22;21042;47.620;12.188;2022-10-31T17:29:34;12.70;99.90
34829;DHT22;21042;47.620;12.188;2022-10-31T17:32:00;12.60;99.90
34829;DHT22;21042;47.620;12.188;2022-10-31T17:34:29;12.50;99.90
34829;DHT22;21042;47.620;12.188;2022-10-31T17:36:56;12.60;99.90
34829;DHT22;21042;47.620;12.188;2022-10-31T17:39:23;12.70;99.90
34829;DHT22;21042;47.620;12.188;2022-10-31T17:41:50;12.80;99.90
34829;DHT22;21042;47.620;12.188;2022-10-31T17:44:17;12.90;99.90
34829;DHT22;21042;47.620;12.188;2022-10-31T17:46:44;12.90;99.90
34829;DHT22;21042;47.620;12.188;2022-10-31T17:49:11;13.10;99.90
34829;DHT22;21042;47.620;12.188;2022-10-31T17:51:38;13.10;99.90
34829;DHT22;21042;47.620;12.188;2022-10-31T17:54:05;13.30;99.90
34829;DHT22;21042;47.620;12.188;2022-10-31T17:56:32;13.30;99.90
34829;DHT22;21042;47.620;12.188;2022-10-31T17:58:59;13.30;99.90
34829;DHT22;21042;47.620;12.188;2022-10-31T18:01:25;13.30;99.90
34829;DHT22;21042;47.620;12.188;2022-10-31T18:03:52;13.30;99.90
34829;DHT22;21042;47.620;12.188;2022-10-31T18:06:19;13.20;99.90
34829;DHT22;21042;47.620;12.188;2022-10-31T18:08:46;13.20;99.90
34829;DHT22;21042;47.620;12.188;2022-10-31T18:11:15;13.10;99.90
34829;DHT22;21042;47.620;12.188;2022-10-31T18:13:42;12.90;99.90
34829;DHT22;21042;47.620;12.188;2022-10-31T18:16:11;12.40;99.90
34829;DHT22;21042;47.620;12.188;2022-10-31T18:18:38;12.30;99.90
34829;DHT22;21042;47.620;12.188;2022-10-31T18:21:05;12.00;99.90
34829;DHT22;21042;47.620;12.188;2022-10-31T18:23:32;11.90;99.90
34829;DHT22;21042;47.620;12.188;2022-10-31T18:25:59;11.80;99.90